sensor_id;sensor_type;location;lat;lon;timestamp;P1;durP1;ratioP1;P2;durP2;ratioP2
16760;SDS011;8498;52.516;13.790;2022-08-19T00:05:18;15.45;;;8.98;;
16760;SDS011;8498;52.516;13.790;2022-08-19T00:10:42;11.68;;;8.45;;
16760;SDS011;8498;52.516;13.790;2022-08-19T00:16:05;13.68;;;8.20;;
16760;SDS011;8498;52.516;13.790;2022-08-19T00:21:29;12.98;;;9.38;;
16760;SDS011;8498;52.516;13.790;2022-08-19T00:26:51;11.90;;;9.13;;
16760;SDS011;8498;52.516;13.790;2022-08-19T00:32:14;12.98;;;8.98;;
16760;SDS011;8498;52.516;13.790;2022-08-19T00:37:39;11.98;;;9.25;;
16760;SDS011;8498;52.516;13.790;2022-08-19T00:43:10;13.60;;;9.27;;
16760;SDS011;8498;52.516;13.790;2022-08-19T00:48:35;12.50;;;9.05;;
16760;SDS011;8498;52.516;13.790;2022-08-19T00:53:58;14.07;;;9.52;;
16760;SDS011;8498;52.516;13.790;2022-08-19T00:59:23;13.98;;;9.32;;
16760;SDS011;8498;52.516;13.790;2022-08-19T01:05:06;13.63;;;9.98;;
16760;SDS011;8498;52.516;13.790;2022-08-19T01:10:32;15.90;;;9.70;;
16760;SDS011;8498;52.516;13.790;2022-08-19T01:16:00;14.38;;;9.80;;
16760;SDS011;8498;52.516;13.790;2022-08-19T01:21:37;26.00;;;11.55;;
16760;SDS011;8498;52.516;13.790;2022-08-19T01:27:10;18.60;;;10.38;;
16760;SDS011;8498;52.516;13.790;2022-08-19T01:32:33;20.00;;;10.90;;
16760;SDS011;8498;52.516;13.790;2022-08-19T01:37:59;15.90;;;9.80;;
16760;SDS011;8498;52.516;13.790;2022-08-19T01:43:23;16.08;;;11.05;;
16760;SDS011;8498;52.516;13.790;2022-08-19T01:48:46;15.65;;;10.80;;
16760;SDS011;8498;52.516;13.790;2022-08-19T01:54:09;20.48;;;11.85;;
16760;SDS011;8498;52.516;13.790;2022-08-19T01:59:33;17.60;;;11.40;;
16760;SDS011;8498;52.516;13.790;2022-08-19T02:04:58;14.40;;;10.52;;
16760;SDS011;8498;52.516;13.790;2022-08-19T02:10:21;16.90;;;10.95;;
16760;SDS011;8498;52.516;13.790;2022-08-19T02:15:44;16.48;;;11.38;;
16760;SDS011;8498;52.516;13.790;2022-08-19T02:21:07;17.42;;;11.07;;
16760;SDS011;8498;52.516;13.790;2022-08-19T02:26:29;18.15;;;11.20;;
16760;SDS011;8498;52.516;13.790;2022-08-19T02:31:52;18.40;;;12.38;;
16760;SDS011;8498;52.516;13.790;2022-08-19T02:37:14;14.68;;;10.98;;
16760;SDS011;8498;52.516;13.790;2022-08-19T02:42:56;20.25;;;11.88;;
16760;SDS011;8498;52.516;13.790;2022-08-19T02:48:18;16.85;;;11.50;;
16760;SDS011;8498;52.516;13.790;2022-08-19T02:53:42;15.55;;;11.98;;
16760;SDS011;8498;52.516;13.790;2022-08-19T02:59:05;16.88;;;11.48;;
16760;SDS011;8498;52.516;13.790;2022-08-19T03:04:34;15.82;;;11.38;;
16760;SDS011;8498;52.516;13.790;2022-08-19T03:09:56;18.02;;;12.65;;
16760;SDS011;8498;52.516;13.790;2022-08-19T03:15:19;17.98;;;10.88;;
16760;SDS011;8498;52.516;13.790;2022-08-19T03:20:45;19.05;;;11.65;;
16760;SDS011;8498;52.516;13.790;2022-08-19T03:26:10;16.58;;;10.93;;
16760;SDS011;8498;52.516;13.790;2022-08-19T03:31:38;15.75;;;11.35;;
16760;SDS011;8498;52.516;13.790;2022-08-19T03:37:13;17.30;;;12.00;;
16760;SDS011;8498;52.516;13.790;2022-08-19T03:42:36;17.23;;;11.60;;
16760;SDS011;8498;52.516;13.790;2022-08-19T03:48:18;15.65;;;11.13;;
16760;SDS011;8498;52.516;13.790;2022-08-19T03:53:40;14.48;;;10.45;;
16760;SDS011;8498;52.516;13.790;2022-08-19T03:59:04;16.70;;;11.10;;
16760;SDS011;8498;52.516;13.790;2022-08-19T04:04:27;14.40;;;10.45;;
16760;SDS011;8498;52.516;13.790;2022-08-19T04:09:52;15.27;;;9.95;;
16760;SDS011;8498;52.516;13.790;2022-08-19T04:15:15;16.40;;;10.18;;
16760;SDS011;8498;52.516;13.790;2022-08-19T04:20:42;16.02;;;10.40;;
16760;SDS011;8498;52.516;13.790;2022-08-19T04:26:06;13.13;;;10.23;;
16760;SDS011;8498;52.516;13.790;2022-08-19T04:31:33;12.85;;;9.60;;
16760;SDS011;8498;52.516;13.790;2022-08-19T04:36:58;14.55;;;9.93;;
16760;SDS011;8498;52.516;13.790;2022-08-19T04:42:21;14.15;;;10.20;;
16760;SDS011;8498;52.516;13.790;2022-08-19T04:48:02;14.00;;;9.65;;
16760;SDS011;8498;52.516;13.790;2022-08-19T04:53:44;14.35;;;9.35;;
16760;SDS011;8498;52.516;13.790;2022-08-19T04:59:07;11.15;;;9.07;;
16760;SDS011;8498;52.516;13.790;2022-08-19T05:04:30;13.20;;;10.10;;
16760;SDS011;8498;52.516;13.790;2022-08-19T05:09:54;13.70;;;10.63;;
16760;SDS011;8498;52.516;13.790;2022-08-19T05:15:20;14.13;;;10.68;;
16760;SDS011;8498;52.516;13.790;2022-08-19T05:20:42;24.65;;;14.75;;
16760;SDS011;8498;52.516;13.790;2022-08-19T05:26:24;19.25;;;11.77;;
16760;SDS011;8498;52.516;13.790;2022-08-19T05:31:50;18.38;;;13.10;;
16760;SDS011;8498;52.516;13.790;2022-08-19T05:37:14;17.38;;;13.07;;
16760;SDS011;8498;52.516;13.790;2022-08-19T05:42:37;20.27;;;13.15;;
16760;SDS011;8498;52.516;13.790;2022-08-19T05:47:59;20.65;;;14.55;;
16760;SDS011;8498;52.516;13.790;2022-08-19T05:53:22;20.50;;;13.18;;
16760;SDS011;8498;52.516;13.790;2022-08-19T05:58:44;21.52;;;14.45;;
16760;SDS011;8498;52.516;13.790;2022-08-19T06:04:07;25.42;;;16.00;;
16760;SDS011;8498;52.516;13.790;2022-08-19T06:09:30;23.40;;;15.73;;
16760;SDS011;8498;52.516;13.790;2022-08-19T06:14:52;24.27;;;15.77;;
16760;SDS011;8498;52.516;13.790;2022-08-19T06:20:22;22.35;;;14.75;;
16760;SDS011;8498;52.516;13.790;2022-08-19T06:26:05;23.25;;;14.90;;
16760;SDS011;8498;52.516;13.790;2022-08-19T06:31:28;26.98;;;18.80;;
16760;SDS011;8498;52.516;13.790;2022-08-19T06:36:53;27.77;;;19.25;;
16760;SDS011;8498;52.516;13.790;2022-08-19T06:42:17;24.92;;;16.70;;
16760;SDS011;8498;52.516;13.790;2022-08-19T06:47:43;29.33;;;17.95;;
16760;SDS011;8498;52.516;13.790;2022-08-19T06:53:09;26.70;;;17.67;;
16760;SDS011;8498;52.516;13.790;2022-08-19T06:58:33;29.65;;;20.73;;
16760;SDS011;8498;52.516;13.790;2022-08-19T07:03:56;36.65;;;24.67;;
16760;SDS011;8498;52.516;13.790;2022-08-19T07:09:19;31.67;;;20.05;;
16760;SDS011;8498;52.516;13.790;2022-08-19T07:14:42;30.27;;;20.95;;
16760;SDS011;8498;52.516;13.790;2022-08-19T07:20:05;24.23;;;16.77;;
16760;SDS011;8498;52.516;13.790;2022-08-19T07:25:31;28.15;;;18.35;;
16760;SDS011;8498;52.516;13.790;2022-08-19T07:30:54;25.33;;;17.25;;
16760;SDS011;8498;52.516;13.790;2022-08-19T07:36:18;29.92;;;18.83;;
16760;SDS011;8498;52.516;13.790;2022-08-19T07:41:47;37.28;;;24.63;;
16760;SDS011;8498;52.516;13.790;2022-08-19T07:47:10;31.00;;;20.23;;
16760;SDS011;8498;52.516;13.790;2022-08-19T07:52:53;24.02;;;17.05;;
16760;SDS011;8498;52.516;13.790;2022-08-19T07:58:17;33.17;;;20.95;;
16760;SDS011;8498;52.516;13.790;2022-08-19T08:03:41;29.48;;;19.88;;
16760;SDS011;8498;52.516;13.790;2022-08-19T08:09:25;26.45;;;17.73;;
16760;SDS011;8498;52.516;13.790;2022-08-19T08:17:30;24.48;;;16.92;;
16760;SDS011;8498;52.516;13.790;2022-08-19T08:23:10;27.15;;;17.17;;
16760;SDS011;8498;52.516;13.790;2022-08-19T08:28:49;23.92;;;16.90;;
16760;SDS011;8498;52.516;13.790;2022-08-19T08:34:12;29.55;;;20.63;;
16760;SDS011;8498;52.516;13.790;2022-08-19T08:39:36;25.70;;;17.13;;
16760;SDS011;8498;52.516;13.790;2022-08-19T08:45:00;22.95;;;16.75;;
16760;SDS011;8498;52.516;13.790;2022-08-19T08:50:43;23.80;;;17.05;;
16760;SDS011;8498;52.516;13.790;2022-08-19T08:56:10;23.98;;;16.30;;
16760;SDS011;8498;52.516;13.790;2022-08-19T09:01:38;24.25;;;15.02;;
16760;SDS011;8498;52.516;13.790;2022-08-19T09:12:52;23.48;;;15.77;;
16760;SDS011;8498;52.516;13.790;2022-08-19T09:18:48;19.42;;;14.60;;
16760;SDS011;8498;52.516;13.790;2022-08-19T09:24:15;20.55;;;14.85;;
16760;SDS011;8498;52.516;13.790;2022-08-19T09:29:38;19.73;;;12.77;;
16760;SDS011;8498;52.516;13.790;2022-08-19T09:35:01;20.05;;;14.00;;
16760;SDS011;8498;52.516;13.790;2022-08-19T09:40:29;25.02;;;15.65;;
16760;SDS011;8498;52.516;13.790;2022-08-19T09:45:59;21.48;;;15.00;;
16760;SDS011;8498;52.516;13.790;2022-08-19T09:51:24;19.63;;;13.77;;
16760;SDS011;8498;52.516;13.790;2022-08-19T09:56:51;23.90;;;14.35;;
16760;SDS011;8498;52.516;13.790;2022-08-19T10:02:14;18.63;;;14.30;;
16760;SDS011;8498;52.516;13.790;2022-08-19T10:07:43;18.60;;;13.43;;
16760;SDS011;8498;52.516;13.790;2022-08-19T10:13:07;19.50;;;13.90;;
16760;SDS011;8498;52.516;13.790;2022-08-19T10:18:30;19.83;;;14.90;;
16760;SDS011;8498;52.516;13.790;2022-08-19T10:23:57;25.73;;;15.40;;
16760;SDS011;8498;52.516;13.790;2022-08-19T10:29:22;20.50;;;15.43;;
16760;SDS011;8498;52.516;13.790;2022-08-19T10:34:54;21.67;;;15.13;;
16760;SDS011;8498;52.516;13.790;2022-08-19T10:40:18;25.08;;;15.45;;
16760;SDS011;8498;52.516;13.790;2022-08-19T10:45:41;19.67;;;14.25;;
16760;SDS011;8498;52.516;13.790;2022-08-19T10:51:13;17.70;;;14.55;;
16760;SDS011;8498;52.516;13.790;2022-08-19T10:56:55;21.85;;;15.35;;
16760;SDS011;8498;52.516;13.790;2022-08-19T11:02:18;22.70;;;14.73;;
16760;SDS011;8498;52.516;13.790;2022-08-19T11:07:41;18.02;;;14.43;;
16760;SDS011;8498;52.516;13.790;2022-08-19T11:13:04;19.27;;;13.18;;
16760;SDS011;8498;52.516;13.790;2022-08-19T11:18:27;17.02;;;13.48;;
16760;SDS011;8498;52.516;13.790;2022-08-19T11:23:51;16.60;;;12.73;;
16760;SDS011;8498;52.516;13.790;2022-08-19T11:29:16;17.25;;;12.98;;
16760;SDS011;8498;52.516;13.790;2022-08-19T11:34:41;18.67;;;13.60;;
16760;SDS011;8498;52.516;13.790;2022-08-19T11:40:04;27.35;;;14.23;;
16760;SDS011;8498;52.516;13.790;2022-08-19T11:45:28;15.73;;;12.93;;
16760;SDS011;8498;52.516;13.790;2022-08-19T11:50:51;18.75;;;12.95;;
16760;SDS011;8498;52.516;13.790;2022-08-19T11:56:14;20.45;;;13.38;;
16760;SDS011;8498;52.516;13.790;2022-08-19T12:01:37;19.35;;;13.35;;
16760;SDS011;8498;52.516;13.790;2022-08-19T12:06:59;19.20;;;13.20;;
16760;SDS011;8498;52.516;13.790;2022-08-19T12:12:22;16.52;;;12.93;;
16760;SDS011;8498;52.516;13.790;2022-08-19T12:17:46;15.27;;;12.25;;
16760;SDS011;8498;52.516;13.790;2022-08-19T12:23:09;18.17;;;12.95;;
16760;SDS011;8498;52.516;13.790;2022-08-19T12:28:32;15.13;;;11.65;;
16760;SDS011;8498;52.516;13.790;2022-08-19T12:33:55;17.95;;;12.48;;
16760;SDS011;8498;52.516;13.790;2022-08-19T12:39:17;19.90;;;12.98;;
16760;SDS011;8498;52.516;13.790;2022-08-19T12:44:41;18.50;;;12.30;;
16760;SDS011;8498;52.516;13.790;2022-08-19T12:50:05;17.52;;;12.35;;
16760;SDS011;8498;52.516;13.790;2022-08-19T12:55:30;12.93;;;11.15;;
16760;SDS011;8498;52.516;13.790;2022-08-19T13:00:53;14.95;;;11.63;;
16760;SDS011;8498;52.516;13.790;2022-08-19T13:06:16;16.08;;;12.48;;
16760;SDS011;8498;52.516;13.790;2022-08-19T13:11:41;16.17;;;11.85;;
16760;SDS011;8498;52.516;13.790;2022-08-19T13:17:06;15.45;;;11.70;;
16760;SDS011;8498;52.516;13.790;2022-08-19T13:22:28;15.98;;;11.60;;
16760;SDS011;8498;52.516;13.790;2022-08-19T13:27:51;14.15;;;12.10;;
16760;SDS011;8498;52.516;13.790;2022-08-19T13:33:14;13.75;;;11.15;;
16760;SDS011;8498;52.516;13.790;2022-08-19T13:38:37;14.80;;;11.65;;
16760;SDS011;8498;52.516;13.790;2022-08-19T13:44:00;15.27;;;11.10;;
16760;SDS011;8498;52.516;13.790;2022-08-19T13:49:23;16.20;;;11.43;;
16760;SDS011;8498;52.516;13.790;2022-08-19T13:54:46;14.55;;;11.85;;
16760;SDS011;8498;52.516;13.790;2022-08-19T14:00:10;14.30;;;11.70;;
16760;SDS011;8498;52.516;13.790;2022-08-19T14:05:39;15.90;;;11.52;;
16760;SDS011;8498;52.516;13.790;2022-08-19T14:11:02;15.50;;;11.55;;
16760;SDS011;8498;52.516;13.790;2022-08-19T14:16:27;12.43;;;10.93;;
16760;SDS011;8498;52.516;13.790;2022-08-19T14:21:52;14.18;;;11.52;;
16760;SDS011;8498;52.516;13.790;2022-08-19T14:27:14;14.20;;;11.38;;
16760;SDS011;8498;52.516;13.790;2022-08-19T14:32:37;16.50;;;11.60;;
16760;SDS011;8498;52.516;13.790;2022-08-19T14:38:00;14.63;;;11.80;;
16760;SDS011;8498;52.516;13.790;2022-08-19T14:43:24;14.43;;;11.45;;
16760;SDS011;8498;52.516;13.790;2022-08-19T14:48:47;14.38;;;12.32;;
16760;SDS011;8498;52.516;13.790;2022-08-19T14:54:13;14.93;;;11.63;;
16760;SDS011;8498;52.516;13.790;2022-08-19T14:59:35;18.63;;;12.57;;
16760;SDS011;8498;52.516;13.790;2022-08-19T15:04:58;14.20;;;11.75;;
16760;SDS011;8498;52.516;13.790;2022-08-19T15:10:21;15.82;;;11.82;;
16760;SDS011;8498;52.516;13.790;2022-08-19T15:15:46;14.20;;;11.43;;
16760;SDS011;8498;52.516;13.790;2022-08-19T15:21:09;15.75;;;12.07;;
16760;SDS011;8498;52.516;13.790;2022-08-19T15:26:34;13.93;;;11.43;;
16760;SDS011;8498;52.516;13.790;2022-08-19T15:31:57;17.10;;;12.00;;
16760;SDS011;8498;52.516;13.790;2022-08-19T15:37:22;15.75;;;10.57;;
16760;SDS011;8498;52.516;13.790;2022-08-19T15:42:44;13.48;;;10.60;;
16760;SDS011;8498;52.516;13.790;2022-08-19T15:48:08;14.98;;;10.43;;
16760;SDS011;8498;52.516;13.790;2022-08-19T15:53:30;14.32;;;10.48;;
16760;SDS011;8498;52.516;13.790;2022-08-19T15:58:54;15.32;;;10.98;;
16760;SDS011;8498;52.516;13.790;2022-08-19T16:04:35;17.23;;;10.32;;
16760;SDS011;8498;52.516;13.790;2022-08-19T16:10:17;12.55;;;9.88;;
16760;SDS011;8498;52.516;13.790;2022-08-19T16:15:48;11.10;;;9.30;;
16760;SDS011;8498;52.516;13.790;2022-08-19T16:21:11;14.40;;;9.20;;
16760;SDS011;8498;52.516;13.790;2022-08-19T16:26:35;13.57;;;9.70;;
16760;SDS011;8498;52.516;13.790;2022-08-19T16:31:57;12.07;;;9.75;;
16760;SDS011;8498;52.516;13.790;2022-08-19T16:37:20;32.97;;;17.88;;
16760;SDS011;8498;52.516;13.790;2022-08-19T16:42:44;59.20;;;22.27;;
16760;SDS011;8498;52.516;13.790;2022-08-19T16:48:06;83.07;;;36.20;;
16760;SDS011;8498;52.516;13.790;2022-08-19T16:53:32;13.63;;;10.10;;
16760;SDS011;8498;52.516;13.790;2022-08-19T16:58:54;11.85;;;9.68;;
16760;SDS011;8498;52.516;13.790;2022-08-19T17:04:20;11.52;;;9.73;;
16760;SDS011;8498;52.516;13.790;2022-08-19T17:09:42;14.02;;;9.02;;
16760;SDS011;8498;52.516;13.790;2022-08-19T17:15:07;11.27;;;9.60;;
16760;SDS011;8498;52.516;13.790;2022-08-19T17:20:30;13.80;;;9.63;;
16760;SDS011;8498;52.516;13.790;2022-08-19T17:25:54;11.50;;;9.18;;
16760;SDS011;8498;52.516;13.790;2022-08-19T17:31:17;11.48;;;9.73;;
16760;SDS011;8498;52.516;13.790;2022-08-19T17:36:42;12.90;;;10.13;;
16760;SDS011;8498;52.516;13.790;2022-08-19T17:42:04;14.73;;;10.23;;
16760;SDS011;8498;52.516;13.790;2022-08-19T17:47:29;12.63;;;10.10;;
16760;SDS011;8498;52.516;13.790;2022-08-19T17:52:52;15.77;;;9.90;;
16760;SDS011;8498;52.516;13.790;2022-08-19T17:58:14;14.40;;;10.13;;
16760;SDS011;8498;52.516;13.790;2022-08-19T18:03:40;14.65;;;10.82;;
16760;SDS011;8498;52.516;13.790;2022-08-19T18:09:04;14.20;;;10.73;;
16760;SDS011;8498;52.516;13.790;2022-08-19T18:14:30;14.30;;;10.38;;
16760;SDS011;8498;52.516;13.790;2022-08-19T18:19:55;15.52;;;10.57;;
16760;SDS011;8498;52.516;13.790;2022-08-19T18:25:19;12.23;;;9.95;;
16760;SDS011;8498;52.516;13.790;2022-08-19T18:30:45;14.13;;;10.05;;
16760;SDS011;8498;52.516;13.790;2022-08-19T18:36:07;13.05;;;10.63;;
16760;SDS011;8498;52.516;13.790;2022-08-19T18:41:30;13.45;;;10.68;;
16760;SDS011;8498;52.516;13.790;2022-08-19T18:47:13;16.40;;;11.02;;
16760;SDS011;8498;52.516;13.790;2022-08-19T18:52:56;13.95;;;10.10;;
16760;SDS011;8498;52.516;13.790;2022-08-19T18:58:30;14.50;;;10.07;;
16760;SDS011;8498;52.516;13.790;2022-08-19T19:03:58;14.57;;;10.52;;
16760;SDS011;8498;52.516;13.790;2022-08-19T19:09:27;17.15;;;10.98;;
16760;SDS011;8498;52.516;13.790;2022-08-19T19:14:50;14.65;;;11.30;;
16760;SDS011;8498;52.516;13.790;2022-08-19T19:20:13;12.90;;;10.48;;
16760;SDS011;8498;52.516;13.790;2022-08-19T19:25:37;14.73;;;10.63;;
16760;SDS011;8498;52.516;13.790;2022-08-19T19:31:13;13.55;;;9.85;;
16760;SDS011;8498;52.516;13.790;2022-08-19T19:36:37;13.50;;;9.82;;
16760;SDS011;8498;52.516;13.790;2022-08-19T19:42:05;12.60;;;10.13;;
16760;SDS011;8498;52.516;13.790;2022-08-19T19:47:35;13.77;;;9.48;;
16760;SDS011;8498;52.516;13.790;2022-08-19T19:52:59;11.80;;;9.77;;
16760;SDS011;8498;52.516;13.790;2022-08-19T19:58:26;12.23;;;9.85;;
16760;SDS011;8498;52.516;13.790;2022-08-19T20:03:51;11.23;;;8.88;;
16760;SDS011;8498;52.516;13.790;2022-08-19T20:09:14;10.48;;;8.38;;
16760;SDS011;8498;52.516;13.790;2022-08-19T20:14:40;10.93;;;8.13;;
16760;SDS011;8498;52.516;13.790;2022-08-19T20:20:03;8.80;;;7.70;;
16760;SDS011;8498;52.516;13.790;2022-08-19T20:25:26;10.85;;;7.82;;
16760;SDS011;8498;52.516;13.790;2022-08-19T20:30:49;9.02;;;7.03;;
16760;SDS011;8498;52.516;13.790;2022-08-19T20:36:12;8.68;;;7.40;;
16760;SDS011;8498;52.516;13.790;2022-08-19T20:41:35;10.00;;;7.68;;
16760;SDS011;8498;52.516;13.790;2022-08-19T20:46:58;8.75;;;7.85;;
16760;SDS011;8498;52.516;13.790;2022-08-19T20:52:25;9.63;;;7.45;;
16760;SDS011;8498;52.516;13.790;2022-08-19T20:57:47;9.20;;;7.30;;
16760;SDS011;8498;52.516;13.790;2022-08-19T21:03:12;10.00;;;8.02;;
16760;SDS011;8498;52.516;13.790;2022-08-19T21:08:38;11.65;;;8.00;;
16760;SDS011;8498;52.516;13.790;2022-08-19T21:14:01;9.93;;;8.25;;
16760;SDS011;8498;52.516;13.790;2022-08-19T21:19:24;10.63;;;7.72;;
16760;SDS011;8498;52.516;13.790;2022-08-19T21:24:46;11.25;;;7.90;;
16760;SDS011;8498;52.516;13.790;2022-08-19T21:30:09;9.43;;;7.93;;
16760;SDS011;8498;52.516;13.790;2022-08-19T21:35:32;9.32;;;7.53;;
16760;SDS011;8498;52.516;13.790;2022-08-19T21:40:55;9.52;;;8.00;;
16760;SDS011;8498;52.516;13.790;2022-08-19T21:46:17;10.68;;;8.30;;
16760;SDS011;8498;52.516;13.790;2022-08-19T21:51:40;10.23;;;8.30;;
16760;SDS011;8498;52.516;13.790;2022-08-19T21:57:02;13.02;;;7.93;;
16760;SDS011;8498;52.516;13.790;2022-08-19T22:02:31;9.75;;;8.02;;
16760;SDS011;8498;52.516;13.790;2022-08-19T22:07:54;12.23;;;8.43;;
16760;SDS011;8498;52.516;13.790;2022-08-19T22:13:20;11.77;;;8.88;;
16760;SDS011;8498;52.516;13.790;2022-08-19T22:18:42;11.88;;;8.30;;
16760;SDS011;8498;52.516;13.790;2022-08-19T22:24:05;10.52;;;8.75;;
16760;SDS011;8498;52.516;13.790;2022-08-19T22:29:28;10.35;;;8.82;;
16760;SDS011;8498;52.516;13.790;2022-08-19T22:34:58;10.73;;;8.70;;
16760;SDS011;8498;52.516;13.790;2022-08-19T22:40:21;10.80;;;8.90;;
16760;SDS011;8498;52.516;13.790;2022-08-19T22:45:44;10.57;;;8.45;;
16760;SDS011;8498;52.516;13.790;2022-08-19T22:51:07;11.25;;;8.82;;
16760;SDS011;8498;52.516;13.790;2022-08-19T22:56:50;12.48;;;8.70;;
16760;SDS011;8498;52.516;13.790;2022-08-19T23:02:24;10.98;;;8.77;;
16760;SDS011;8498;52.516;13.790;2022-08-19T23:07:49;13.13;;;9.30;;
16760;SDS011;8498;52.516;13.790;2022-08-19T23:13:15;11.88;;;9.00;;
16760;SDS011;8498;52.516;13.790;2022-08-19T23:18:40;12.82;;;9.07;;
16760;SDS011;8498;52.516;13.790;2022-08-19T23:24:02;15.75;;;9.88;;
16760;SDS011;8498;52.516;13.790;2022-08-19T23:29:25;10.50;;;8.32;;
16760;SDS011;8498;52.516;13.790;2022-08-19T23:35:08;11.52;;;8.82;;
16760;SDS011;8498;52.516;13.790;2022-08-19T23:40:31;12.57;;;8.82;;
16760;SDS011;8498;52.516;13.790;2022-08-19T23:45:55;15.57;;;9.77;;
16760;SDS011;8498;52.516;13.790;2022-08-19T23:51:22;13.65;;;9.57;;
16760;SDS011;8498;52.516;13.790;2022-08-19T23:56:44;12.75;;;9.90;;
